createdAt,value
2019-02-10T00:02:14.086Z,7.10
2019-02-10T00:04:41.929Z,7.20
2019-02-10T00:07:09.876Z,7.10
2019-02-10T00:09:37.734Z,7.10
2019-02-10T00:12:05.757Z,7.10
2019-02-10T00:14:33.728Z,7.10
2019-02-10T00:17:01.522Z,7.10
2019-02-10T00:19:29.415Z,7.00
2019-02-10T00:21:57.259Z,7.00
2019-02-10T00:24:25.167Z,7.00
2019-02-10T00:26:52.921Z,6.90
2019-02-10T00:29:20.783Z,6.80
2019-02-10T00:31:48.622Z,6.70
2019-02-10T00:34:16.507Z,6.60
2019-02-10T00:36:44.410Z,6.70
2019-02-10T00:39:12.241Z,6.70
2019-02-10T00:41:40.107Z,6.70
2019-02-10T00:44:08.058Z,6.70
2019-02-10T00:46:35.940Z,6.70
2019-02-10T00:49:03.882Z,6.80
2019-02-10T00:51:31.662Z,6.70
2019-02-10T00:53:59.631Z,6.80
2019-02-10T00:56:27.507Z,6.80
2019-02-10T00:58:55.392Z,6.80
2019-02-10T01:01:23.319Z,6.80
2019-02-10T01:03:51.122Z,6.80
2019-02-10T01:06:18.963Z,6.80
2019-02-10T01:08:46.850Z,6.70
2019-02-10T01:11:14.721Z,6.70
2019-02-10T01:13:42.615Z,6.70
2019-02-10T01:16:10.456Z,6.60
2019-02-10T01:18:38.222Z,6.60
2019-02-10T01:21:06.095Z,6.60
2019-02-10T01:23:33.947Z,6.50
2019-02-10T01:26:01.740Z,6.50
2019-02-10T01:28:29.948Z,6.50
2019-02-10T01:30:57.794Z,6.40
2019-02-10T01:33:25.627Z,6.30
2019-02-10T01:35:53.518Z,6.20
2019-02-10T01:38:21.341Z,6.10
2019-02-10T01:40:49.235Z,6.00
2019-02-10T01:43:17.084Z,5.90
2019-02-10T01:45:44.971Z,5.90
2019-02-10T01:48:12.912Z,5.80
2019-02-10T01:50:40.798Z,5.70
2019-02-10T01:53:08.666Z,5.60
2019-02-10T01:55:36.553Z,5.60
2019-02-10T01:58:04.406Z,5.60
2019-02-10T02:00:32.364Z,5.60
2019-02-10T02:03:00.246Z,5.50
2019-02-10T02:05:28.110Z,5.40
2019-02-10T02:07:55.967Z,5.40
2019-02-10T02:10:23.855Z,5.40
2019-02-10T02:12:51.887Z,5.30
2019-02-10T02:15:19.678Z,5.30
2019-02-10T02:17:47.539Z,5.30
2019-02-10T02:20:15.771Z,5.20
2019-02-10T02:22:43.550Z,5.20
2019-02-10T02:25:11.694Z,5.20
2019-02-10T02:27:39.576Z,5.20
2019-02-10T02:30:08.950Z,5.10
2019-02-10T02:32:36.804Z,5.10
2019-02-10T02:35:04.688Z,5.10
2019-02-10T02:37:32.455Z,5.10
2019-02-10T02:40:00.311Z,5.00
2019-02-10T02:42:28.160Z,5.00
2019-02-10T02:44:56.045Z,5.10
2019-02-10T02:47:23.886Z,5.00
2019-02-10T02:49:51.783Z,5.00
2019-02-10T02:52:19.624Z,5.00
2019-02-10T02:54:47.591Z,5.00
2019-02-10T02:57:15.353Z,4.90
2019-02-10T02:59:43.258Z,4.90
2019-02-10T03:02:11.205Z,5.00
2019-02-10T03:04:38.984Z,5.00
2019-02-10T03:07:06.848Z,5.00
2019-02-10T03:09:34.616Z,5.10
2019-02-10T03:12:02.418Z,5.10
2019-02-10T03:14:30.224Z,5.10
2019-02-10T03:16:58.114Z,5.00
2019-02-10T03:19:25.958Z,5.00
2019-02-10T03:21:53.848Z,5.00
2019-02-10T03:24:21.699Z,5.00
2019-02-10T03:26:49.485Z,5.00
2019-02-10T03:29:17.623Z,5.00
2019-02-10T03:31:45.876Z,5.00
2019-02-10T03:34:13.783Z,4.90
2019-02-10T03:36:41.657Z,4.90
2019-02-10T03:39:09.523Z,4.90
2019-02-10T03:41:37.395Z,4.80
2019-02-10T03:44:05.245Z,4.80
2019-02-10T03:46:33.126Z,4.90
2019-02-10T03:49:00.991Z,4.80
2019-02-10T03:51:28.874Z,4.80
2019-02-10T03:53:56.728Z,4.80
2019-02-10T03:56:24.854Z,4.70
2019-02-10T03:58:52.647Z,4.70
2019-02-10T04:01:20.571Z,4.80
2019-02-10T04:03:48.399Z,4.70
2019-02-10T04:06:16.270Z,4.70
2019-02-10T04:08:44.130Z,4.70
2019-02-10T04:11:12.015Z,4.80
2019-02-10T04:13:39.866Z,4.80
2019-02-10T04:16:07.737Z,4.80
2019-02-10T04:18:35.684Z,4.70
2019-02-10T04:21:03.486Z,4.70
2019-02-10T04:23:31.364Z,4.80
2019-02-10T04:25:59.209Z,4.80
2019-02-10T04:28:26.975Z,4.80
2019-02-10T04:30:54.842Z,4.80
2019-02-10T04:33:22.699Z,4.70
2019-02-10T04:35:50.867Z,4.70
2019-02-10T04:38:18.791Z,4.80
2019-02-10T04:40:46.598Z,4.80
2019-02-10T04:43:14.482Z,4.80
2019-02-10T04:45:42.624Z,4.80
2019-02-10T04:48:10.430Z,4.80
2019-02-10T04:50:38.278Z,4.80
2019-02-10T04:53:06.518Z,4.80
2019-02-10T04:55:34.329Z,4.70
2019-02-10T04:58:02.332Z,4.70
2019-02-10T05:00:30.113Z,4.70
2019-02-10T05:02:57.946Z,4.70
2019-02-10T05:05:25.804Z,4.80
2019-02-10T05:07:54.763Z,4.70
2019-02-10T05:10:23.022Z,4.70
2019-02-10T05:12:50.854Z,4.70
2019-02-10T05:15:18.701Z,4.70
2019-02-10T05:17:46.583Z,4.70
2019-02-10T05:20:14.437Z,4.70
2019-02-10T05:22:42.332Z,4.80
2019-02-10T05:25:10.167Z,4.80
2019-02-10T05:27:37.956Z,4.80
2019-02-10T05:30:05.989Z,4.80
2019-02-10T05:32:33.777Z,4.80
2019-02-10T05:35:01.631Z,4.80
2019-02-10T05:37:29.792Z,4.80
2019-02-10T05:39:57.566Z,4.80
2019-02-10T05:42:25.342Z,4.80
2019-02-10T05:44:53.207Z,4.90
2019-02-10T05:47:21.115Z,4.90
2019-02-10T05:49:48.941Z,4.90
2019-02-10T05:52:16.818Z,5.00
2019-02-10T05:54:44.691Z,5.00
2019-02-10T05:57:12.554Z,5.00
2019-02-10T05:59:40.450Z,5.10
2019-02-10T06:02:18.958Z,5.10
2019-02-10T06:04:46.789Z,5.20
2019-02-10T06:07:16.460Z,5.20
2019-02-10T06:09:45.195Z,5.30
2019-02-10T06:12:13.083Z,5.30
2019-02-10T06:14:40.922Z,5.30
2019-02-10T06:17:08.819Z,5.30
2019-02-10T06:19:36.657Z,5.30
2019-02-10T06:22:04.435Z,5.30
2019-02-10T06:24:32.298Z,5.30
2019-02-10T06:27:00.189Z,5.30
2019-02-10T06:29:28.029Z,5.30
2019-02-10T06:31:55.939Z,5.30
2019-02-10T06:34:23.852Z,5.30
2019-02-10T06:36:51.638Z,5.30
2019-02-10T06:39:19.516Z,5.30
2019-02-10T06:41:47.357Z,5.40
2019-02-10T06:44:15.246Z,5.40
2019-02-10T06:46:43.097Z,5.40
2019-02-10T06:49:10.981Z,5.50
2019-02-10T06:51:38.887Z,5.50
2019-02-10T06:54:06.735Z,5.50
2019-02-10T06:56:34.561Z,5.50
2019-02-10T06:59:02.446Z,5.50
2019-02-10T07:01:36.317Z,5.60
2019-02-10T07:04:14.801Z,5.60
2019-02-10T07:06:42.898Z,5.70
2019-02-10T07:09:10.718Z,5.70
2019-02-10T07:11:38.565Z,5.70
2019-02-10T07:14:14.907Z,5.70
2019-02-10T07:17:03.672Z,5.80
2019-02-10T07:19:49.773Z,5.80
2019-02-10T07:22:36.064Z,5.90
2019-02-10T07:25:22.174Z,5.90
2019-02-10T07:27:50.070Z,5.90
2019-02-10T07:30:49.611Z,5.90
2019-02-10T07:33:24.340Z,6.00
2019-02-10T07:35:58.372Z,6.10
2019-02-10T07:38:29.414Z,6.20
2019-02-10T07:41:16.753Z,6.20
2019-02-10T07:43:59.635Z,6.30
2019-02-10T07:46:35.403Z,6.30
2019-02-10T07:49:16.557Z,6.30
2019-02-10T07:51:53.884Z,6.40
2019-02-10T07:54:59.587Z,6.40
2019-02-10T07:57:45.625Z,6.50
2019-02-10T08:00:23.636Z,6.50
2019-02-10T08:03:13.999Z,6.50
2019-02-10T08:05:45.623Z,6.60
2019-02-10T08:08:31.473Z,6.60
2019-02-10T08:11:17.785Z,6.70
2019-02-10T08:14:04.942Z,6.70
2019-02-10T08:17:07.558Z,6.70
2019-02-10T08:19:43.403Z,6.80
2019-02-10T08:22:18.249Z,6.90
2019-02-10T08:24:58.487Z,6.90
2019-02-10T08:27:45.116Z,6.80
2019-02-10T08:30:35.297Z,6.80
2019-02-10T08:33:23.742Z,6.80
2019-02-10T08:36:01.603Z,6.80
2019-02-10T08:38:45.786Z,6.80
2019-02-10T08:41:32.918Z,6.90
2019-02-10T08:44:09.177Z,6.90
2019-02-10T08:47:02.436Z,6.90
2019-02-10T08:49:48.254Z,6.90
2019-02-10T08:52:27.782Z,7.00
2019-02-10T08:54:56.241Z,7.00
2019-02-10T08:57:24.080Z,7.00
2019-02-10T08:59:51.926Z,7.00
2019-02-10T09:02:20.210Z,7.00
2019-02-10T09:04:48.118Z,7.00
2019-02-10T09:07:16.249Z,7.00
2019-02-10T09:09:44.018Z,6.90
2019-02-10T09:12:11.827Z,6.90
2019-02-10T09:14:39.638Z,6.80
2019-02-10T09:17:07.549Z,6.80
2019-02-10T09:19:35.390Z,6.70
2019-02-10T09:22:03.293Z,6.60
2019-02-10T09:24:31.079Z,6.60
2019-02-10T09:26:58.995Z,6.50
2019-02-10T09:29:26.759Z,6.50
2019-02-10T09:31:54.936Z,6.50
2019-02-10T09:34:22.800Z,6.50
2019-02-10T09:36:51.347Z,6.50
2019-02-10T09:39:19.249Z,6.50
2019-02-10T09:41:47.160Z,6.40
2019-02-10T09:44:15.267Z,6.50
2019-02-10T09:46:43.103Z,6.50
2019-02-10T09:49:10.918Z,6.50
2019-02-10T09:51:38.827Z,6.40
2019-02-10T09:54:06.626Z,6.40
2019-02-10T09:56:34.410Z,6.50
2019-02-10T09:59:02.331Z,6.50
2019-02-10T10:01:30.153Z,6.50
2019-02-10T10:03:58.060Z,6.40
2019-02-10T10:06:25.834Z,6.50
2019-02-10T10:08:53.642Z,6.50
2019-02-10T10:11:21.534Z,6.50
2019-02-10T10:13:49.440Z,6.50
2019-02-10T10:16:17.284Z,6.50
2019-02-10T10:18:45.163Z,6.50
2019-02-10T10:21:12.987Z,6.50
2019-02-10T10:23:40.899Z,6.50
2019-02-10T10:26:08.709Z,6.50
2019-02-10T10:28:36.909Z,6.50
2019-02-10T10:31:04.668Z,6.40
2019-02-10T10:33:33.308Z,6.40
2019-02-10T10:36:01.128Z,6.40
2019-02-10T10:38:29.034Z,6.40
2019-02-10T10:40:56.852Z,6.40
2019-02-10T10:43:24.759Z,6.40
2019-02-10T10:45:52.577Z,6.40
2019-02-10T10:48:20.486Z,6.40
2019-02-10T10:50:48.318Z,6.50
2019-02-10T10:53:16.552Z,6.50
2019-02-10T10:55:44.365Z,6.50
2019-02-10T10:58:12.592Z,6.50
2019-02-10T11:00:40.396Z,6.50
2019-02-10T11:03:08.315Z,6.50
2019-02-10T11:05:36.503Z,6.50
2019-02-10T11:08:04.364Z,6.50
2019-02-10T11:10:32.173Z,6.50
2019-02-10T11:13:00.083Z,6.50
2019-02-10T11:15:27.855Z,6.50
2019-02-10T11:17:55.713Z,6.50
2019-02-10T11:20:23.553Z,6.60
2019-02-10T11:22:51.464Z,6.60
2019-02-10T11:25:19.543Z,6.70
2019-02-10T11:27:47.412Z,6.90
2019-02-10T11:30:15.201Z,7.00
2019-02-10T11:32:42.991Z,7.00
2019-02-10T11:35:11.323Z,7.00
2019-02-10T11:37:39.236Z,6.90
2019-02-10T11:40:07.719Z,7.00
2019-02-10T11:42:35.850Z,7.00
2019-02-10T11:45:04.079Z,7.00
2019-02-10T11:47:31.934Z,7.00
2019-02-10T11:50:00.276Z,7.10
2019-02-10T11:52:28.454Z,7.10
2019-02-10T11:54:56.318Z,7.10
2019-02-10T11:57:24.127Z,7.20
2019-02-10T11:59:52.057Z,7.30
2019-02-10T12:02:19.851Z,7.30
2019-02-10T12:04:47.771Z,7.30
2019-02-10T12:07:15.666Z,7.40
2019-02-10T12:09:51.366Z,7.40
2019-02-10T12:12:13.062Z,7.50
2019-02-10T12:14:40.978Z,7.50
2019-02-10T12:17:08.805Z,7.60
2019-02-10T12:19:36.702Z,7.60
2019-02-10T12:22:04.615Z,7.60
2019-02-10T12:24:32.466Z,7.60
2019-02-10T12:27:00.282Z,7.60
2019-02-10T12:29:28.184Z,7.60
2019-02-10T12:31:55.967Z,7.60
2019-02-10T12:34:23.921Z,7.70
2019-02-10T12:36:51.824Z,7.70
2019-02-10T12:39:19.629Z,7.70
2019-02-10T12:41:47.407Z,7.70
2019-02-10T12:44:15.276Z,7.70
2019-02-10T12:46:43.078Z,7.80
2019-02-10T12:49:10.911Z,7.80
2019-02-10T12:51:38.700Z,7.80
2019-02-10T12:54:06.595Z,7.80
2019-02-10T12:56:34.374Z,7.80
2019-02-10T12:59:02.216Z,7.80
2019-02-10T13:01:29.981Z,7.90
2019-02-10T13:03:57.811Z,7.80
2019-02-10T13:06:25.711Z,7.90
2019-02-10T13:08:53.497Z,7.80
2019-02-10T13:11:21.330Z,7.90
2019-02-10T13:13:49.107Z,7.80
2019-02-10T13:16:16.938Z,7.80
2019-02-10T13:18:44.763Z,7.90
2019-02-10T13:21:13.000Z,7.90
2019-02-10T13:23:40.808Z,7.90
2019-02-10T13:26:08.715Z,8.00
2019-02-10T13:28:36.542Z,8.00
2019-02-10T13:31:04.456Z,8.00
2019-02-10T13:33:32.282Z,8.00
2019-02-10T13:36:00.144Z,8.10
2019-02-10T13:38:28.051Z,8.10
2019-02-10T13:40:55.881Z,8.10
2019-02-10T13:43:23.637Z,8.20
2019-02-10T13:45:51.454Z,8.50
2019-02-10T13:48:19.287Z,8.80
2019-02-10T13:50:47.174Z,8.80
2019-02-10T13:53:15.005Z,8.70
2019-02-10T13:55:42.969Z,8.50
2019-02-10T13:58:10.850Z,8.40
2019-02-10T14:00:38.657Z,8.30
2019-02-10T14:03:06.673Z,8.20
2019-02-10T14:05:34.592Z,8.10
2019-02-10T14:08:02.687Z,8.10
2019-02-10T14:10:31.172Z,8.00
2019-02-10T14:13:02.153Z,8.00
2019-02-10T14:15:30.397Z,8.00
2019-02-10T14:17:58.177Z,8.00
2019-02-10T14:20:26.007Z,8.00
2019-02-10T14:22:53.847Z,8.00
2019-02-10T14:25:21.665Z,7.90
2019-02-10T14:27:49.443Z,7.90
2019-02-10T14:30:17.355Z,7.90
2019-02-10T14:32:45.154Z,7.90
2019-02-10T14:35:13.269Z,7.90
2019-02-10T14:37:41.118Z,7.90
2019-02-10T14:40:09.046Z,7.90
2019-02-10T14:42:36.827Z,7.90
2019-02-10T14:45:05.007Z,7.90
2019-02-10T14:47:32.805Z,7.90
2019-02-10T14:50:00.754Z,7.90
2019-02-10T14:52:28.623Z,7.90
2019-02-10T14:54:56.454Z,7.90
2019-02-10T14:57:24.228Z,7.80
2019-02-10T14:59:52.041Z,7.80
2019-02-10T15:02:19.805Z,7.80
2019-02-10T15:04:48.319Z,7.80
2019-02-10T15:07:17.591Z,7.80
2019-02-10T15:09:46.151Z,7.80
2019-02-10T15:12:13.974Z,7.80
2019-02-10T15:14:43.156Z,7.80
2019-02-10T15:17:11.158Z,7.80
2019-02-10T15:19:38.952Z,7.70
2019-02-10T15:22:07.259Z,7.70
2019-02-10T15:24:35.196Z,7.70
2019-02-10T15:27:03.072Z,7.70
2019-02-10T15:29:31.139Z,7.60
2019-02-10T15:32:00.318Z,7.60
2019-02-10T15:34:28.338Z,7.60
2019-02-10T15:36:56.234Z,7.60
2019-02-10T15:39:24.019Z,7.60
2019-02-10T15:41:51.841Z,7.60
2019-02-10T15:44:19.609Z,7.60
2019-02-10T15:46:47.935Z,7.60
2019-02-10T15:49:15.694Z,7.60
2019-02-10T15:51:43.548Z,7.60
2019-02-10T15:54:11.365Z,7.60
2019-02-10T15:56:39.280Z,7.60
2019-02-10T15:59:07.085Z,7.60
2019-02-10T16:01:35.016Z,7.60
2019-02-10T16:04:02.822Z,7.60
2019-02-10T16:06:30.896Z,7.60
2019-02-10T16:08:58.673Z,7.60
2019-02-10T16:11:26.481Z,7.60
2019-02-10T16:13:54.582Z,7.60
2019-02-10T16:16:22.419Z,7.60
2019-02-10T16:18:50.189Z,7.60
2019-02-10T16:21:18.115Z,7.60
2019-02-10T16:23:45.899Z,7.60
2019-02-10T16:26:13.746Z,7.60
2019-02-10T16:28:41.519Z,7.60
2019-02-10T16:31:09.422Z,7.60
2019-02-10T16:33:37.197Z,7.60
2019-02-10T16:36:05.159Z,7.60
2019-02-10T16:38:32.952Z,7.70
2019-02-10T16:41:06.263Z,7.70
2019-02-10T16:43:30.392Z,7.70
2019-02-10T16:45:58.257Z,7.70
2019-02-10T16:48:26.103Z,7.70
2019-02-10T16:50:54.020Z,7.70
2019-02-10T16:53:21.798Z,7.70
2019-02-10T16:55:49.627Z,7.80
2019-02-10T16:58:17.455Z,7.80
2019-02-10T17:00:45.318Z,7.80
2019-02-10T17:03:13.230Z,7.80
2019-02-10T17:05:41.058Z,7.90
2019-02-10T17:08:08.957Z,7.90
2019-02-10T17:10:36.743Z,7.90
2019-02-10T17:13:04.593Z,8.00
2019-02-10T17:15:32.421Z,8.00
2019-02-10T17:18:00.335Z,8.10
2019-02-10T17:20:28.412Z,8.10
2019-02-10T17:22:56.280Z,8.10
2019-02-10T17:25:24.106Z,8.10
2019-02-10T17:27:52.056Z,8.20
2019-02-10T17:30:20.233Z,8.20
2019-02-10T17:32:48.166Z,8.20
2019-02-10T17:35:16.367Z,8.30
2019-02-10T17:37:44.245Z,8.30
2019-02-10T17:40:14.823Z,8.30
2019-02-10T17:42:42.682Z,8.40
2019-02-10T17:45:10.455Z,8.40
2019-02-10T17:47:38.282Z,8.40
2019-02-10T17:50:07.094Z,8.40
2019-02-10T17:52:34.921Z,8.50
2019-02-10T17:55:02.698Z,8.50
2019-02-10T17:57:30.555Z,8.50
2019-02-10T17:59:58.439Z,8.50
2019-02-10T18:02:26.374Z,8.50
2019-02-10T18:04:54.182Z,8.60
2019-02-10T18:07:22.030Z,8.60
2019-02-10T18:09:49.860Z,8.70
2019-02-10T18:12:17.677Z,8.70
2019-02-10T18:14:59.305Z,8.80
2019-02-10T18:17:46.373Z,8.80
2019-02-10T18:20:42.490Z,8.80
2019-02-10T18:23:41.951Z,8.80
2019-02-10T18:26:32.955Z,8.80
2019-02-10T18:29:13.886Z,8.90
2019-02-10T18:31:48.700Z,8.90
2019-02-10T18:34:35.902Z,9.00
2019-02-10T18:37:32.139Z,9.00
2019-02-10T18:40:08.588Z,9.00
2019-02-10T18:42:47.027Z,9.00
2019-02-10T18:45:22.035Z,9.00
2019-02-10T18:48:00.078Z,9.00
2019-02-10T18:50:45.837Z,8.90
2019-02-10T18:53:36.079Z,8.90
2019-02-10T18:56:41.483Z,8.80
2019-02-10T18:59:31.676Z,8.70
2019-02-10T19:02:17.575Z,8.70
2019-02-10T19:05:04.699Z,8.60
2019-02-10T19:07:39.827Z,8.60
2019-02-10T19:10:15.600Z,8.60
2019-02-10T19:13:05.595Z,8.70
2019-02-10T19:15:52.683Z,8.70
2019-02-10T19:18:28.138Z,8.70
2019-02-10T19:21:11.248Z,8.70
2019-02-10T19:23:45.626Z,8.70
2019-02-10T19:26:21.229Z,8.70
2019-02-10T19:29:07.542Z,8.70
2019-02-10T19:31:44.480Z,8.70
2019-02-10T19:34:18.250Z,8.70
2019-02-10T19:37:14.789Z,8.70
2019-02-10T19:39:49.651Z,8.70
2019-02-10T19:42:38.139Z,8.70
2019-02-10T19:45:25.204Z,8.80
2019-02-10T19:48:18.532Z,8.90
2019-02-10T19:51:04.366Z,8.90
2019-02-10T19:53:41.389Z,8.90
2019-02-10T19:56:30.825Z,8.90
2019-02-10T19:59:13.889Z,8.80
2019-02-10T20:02:02.735Z,8.60
2019-02-10T20:04:49.771Z,8.50
2019-02-10T20:07:28.491Z,8.40
2019-02-10T20:10:21.827Z,8.40
2019-02-10T20:13:04.669Z,8.30
2019-02-10T20:15:37.425Z,8.30
2019-02-10T20:18:27.731Z,8.30
2019-02-10T20:21:13.703Z,8.40
2019-02-10T20:23:50.912Z,8.40
2019-02-10T20:26:36.607Z,8.40
2019-02-10T20:29:22.404Z,8.40
2019-02-10T20:32:08.556Z,8.30
2019-02-10T20:35:01.730Z,8.30
2019-02-10T20:37:50.174Z,8.30
2019-02-10T20:40:26.435Z,8.30
2019-02-10T20:43:05.606Z,8.30
2019-02-10T20:45:51.557Z,8.40
2019-02-10T20:48:50.462Z,8.40
2019-02-10T20:51:31.823Z,8.40
2019-02-10T20:54:15.214Z,8.40
2019-02-10T20:56:51.233Z,8.40
2019-02-10T20:59:37.473Z,8.40
2019-02-10T21:02:12.758Z,8.40
2019-02-10T21:04:48.259Z,8.40
2019-02-10T21:07:26.214Z,8.40
2019-02-10T21:10:22.414Z,8.40
2019-02-10T21:13:10.834Z,8.40
2019-02-10T21:15:55.195Z,8.60
2019-02-10T21:18:36.715Z,8.60
2019-02-10T21:21:15.870Z,8.70
2019-02-10T21:23:52.690Z,8.80
2019-02-10T21:26:30.759Z,8.80
2019-02-10T21:29:13.743Z,8.80
2019-02-10T21:32:10.900Z,8.70
2019-02-10T21:34:50.882Z,8.60
2019-02-10T21:37:36.739Z,8.50
2019-02-10T21:40:10.179Z,8.50
2019-02-10T21:42:55.899Z,8.40
2019-02-10T21:45:29.454Z,8.40
2019-02-10T21:48:05.176Z,8.40
2019-02-10T21:50:33.007Z,8.40
2019-02-10T21:53:03.598Z,8.30
2019-02-10T21:55:31.450Z,8.30
2019-02-10T21:57:59.292Z,8.20
2019-02-10T22:00:27.084Z,8.10
2019-02-10T22:02:54.918Z,8.10
2019-02-10T22:05:22.699Z,7.90
2019-02-10T22:07:51.063Z,7.90
2019-02-10T22:10:18.883Z,7.90
2019-02-10T22:12:46.653Z,7.80
2019-02-10T22:15:14.530Z,7.70
2019-02-10T22:17:42.296Z,7.70
2019-02-10T22:20:11.323Z,7.70
2019-02-10T22:22:39.278Z,7.70
2019-02-10T22:25:08.099Z,7.60
2019-02-10T22:27:35.955Z,7.60
2019-02-10T22:30:04.971Z,7.60
2019-02-10T22:32:32.743Z,7.60
2019-02-10T22:35:00.807Z,7.50
2019-02-10T22:37:28.605Z,7.50
2019-02-10T22:39:56.389Z,7.50
2019-02-10T22:42:24.167Z,7.50
2019-02-10T22:44:51.947Z,7.50
2019-02-10T22:47:19.726Z,7.50
2019-02-10T22:49:47.586Z,7.40
2019-02-10T22:52:15.431Z,7.40
2019-02-10T22:54:43.218Z,7.40
2019-02-10T22:57:10.977Z,7.40
2019-02-10T22:59:38.957Z,7.40
2019-02-10T23:02:06.777Z,7.40
2019-02-10T23:04:34.737Z,7.40
2019-02-10T23:07:02.807Z,7.40
2019-02-10T23:09:30.663Z,7.40
2019-02-10T23:11:58.551Z,7.40
2019-02-10T23:14:26.469Z,7.30
2019-02-10T23:16:54.347Z,7.30
2019-02-10T23:19:22.622Z,7.40
2019-02-10T23:21:50.763Z,7.50
2019-02-10T23:24:18.626Z,7.40
2019-02-10T23:26:46.448Z,7.40
2019-02-10T23:29:14.610Z,7.40
2019-02-10T23:31:42.453Z,7.40
2019-02-10T23:34:10.255Z,7.40
2019-02-10T23:36:38.083Z,7.40
2019-02-10T23:39:06.120Z,7.40
2019-02-10T23:41:33.962Z,7.30
2019-02-10T23:44:02.179Z,7.30
2019-02-10T23:46:29.999Z,7.30
2019-02-10T23:48:57.842Z,7.20
2019-02-10T23:51:25.735Z,7.10
2019-02-10T23:53:53.594Z,7.00
2019-02-10T23:56:21.457Z,6.80
2019-02-10T23:58:49.230Z,6.70
